South Seaville, New Jersey
Current Conditions -  °F | °C
As of 9:35 AM on Tuesday 21 Oct 2014 (Local Time) from KWWD Reporting Station
Overcast Overcast  
Wind Chill: 63°   Ceiling: 9000
Heat Index: 63°   Visibility: 10mi
Dew Point: 54°   Wind: 10mph
Humidity: 72%   Direction: 190°S
Pressure: 29.9"   Gusts: NA
Location:  39.18°N, 74.76°W
Report Text: KWWD 211335Z AUTO 19009KT 10SM BKN090 OVC120 17/12 A2990 RMK AO1
Loading
Personal Weather Stations






























Interactive Weather Map New forecast layout! Learn more

10-Day Weather Forecast

Advertisements
Track Severe Weather on mobile